Time;durP1;ratioP1;P1;durP2;ratioP2;P2;SDS_P1;SDS_P2;PMS_P1;PMS_P2;Temp;Humidity;BMP_temperature;BMP_pressure;BME280_temperature;BME280_humidity;BME280_pressure;Samples;Min_cycle;Max_cycle;Signal;HPM_P1;HPM_P2
2022/11/15 00:01:41;;;;;;;0.10;0.10;;;;;;;10.46;60.54;97825.22;8416719;28;20236;-73
2022/11/15 00:05:44;;;;;;;0.10;0.10;;;;;;;10.52;60.36;97824.94;8415887;28;20254;-73
2022/11/15 00:09:47;;;;;;;0.10;0.10;;;;;;;10.37;60.90;97825.66;8416311;28;20537;-73
2022/11/15 00:13:52;;;;;;;0.10;0.10;;;;;;;10.38;61.00;97822.16;8415830;28;20276;-73
2022/11/15 00:17:54;;;;;;;0.10;0.10;;;;;;;10.56;60.25;97813.53;8415985;28;20242;-76
2022/11/15 00:21:57;;;;;;;0.10;0.10;;;;;;;10.45;60.53;97814.94;8416259;28;20230;-73
2022/11/15 00:26:00;;;;;;;0.10;0.10;;;;;;;10.61;60.13;97821.09;8416301;28;20526;-73
2022/11/15 00:30:06;;;;;;;0.10;0.10;;;;;;;10.49;60.69;97814.75;8416282;28;20246;-73
2022/11/15 00:34:10;;;;;;;0.10;0.10;;;;;;;10.52;60.61;97811.16;8415965;28;20578;-73
2022/11/15 00:38:13;;;;;;;0.10;0.10;;;;;;;10.60;60.10;97813.41;8415869;28;20238;-73
2022/11/15 00:42:15;;;;;;;0.10;0.10;;;;;;;10.57;60.55;97815.22;8415957;28;20230;-73
2022/11/15 00:46:20;;;;;;;0.10;0.10;;;;;;;10.76;59.31;97810.00;8415295;28;20249;-73
2022/11/15 00:50:23;;;;;;;0.10;0.10;;;;;;;10.73;59.18;97807.56;8415057;28;20361;-73
2022/11/15 00:54:26;;;;;;;0.10;0.10;;;;;;;10.72;59.26;97805.91;8415070;28;20226;-74
2022/11/15 00:58:29;;;;;;;0.10;0.10;;;;;;;10.73;59.17;97810.16;8415178;28;20561;-73
2022/11/15 01:02:34;;;;;;;0.10;0.10;;;;;;;10.69;59.56;97800.03;8414463;28;20226;-73
2022/11/15 01:06:36;;;;;;;0.10;0.10;;;;;;;10.75;59.34;97805.72;8414492;28;20269;-74
2022/11/15 01:10:39;;;;;;;0.10;0.10;;;;;;;10.45;60.97;97797.69;8414329;28;20251;-73
2022/11/15 01:14:42;;;;;;;0.10;0.10;;;;;;;10.73;59.69;97793.78;8414525;28;20231;-74
2022/11/15 01:18:46;;;;;;;0.10;0.10;;;;;;;10.45;61.35;97792.50;8414372;28;20238;-73
2022/11/15 01:22:49;;;;;;;0.10;0.10;;;;;;;10.31;61.40;97794.88;8414126;28;20230;-74
2022/11/15 01:26:52;;;;;;;0.10;0.10;;;;;;;10.34;61.46;97781.81;8413333;28;20226;-74
2022/11/15 01:30:58;;;;;;;0.10;0.10;;;;;;;10.47;61.02;97777.72;8414174;28;20230;-74
2022/11/15 01:35:03;;;;;;;0.10;0.10;;;;;;;10.16;62.20;97789.44;8413634;28;20521;-73
2022/11/15 01:39:06;;;;;;;0.10;0.10;;;;;;;10.12;62.15;97780.16;8413786;28;20254;-73
2022/11/15 01:43:22;;;;;;;0.10;0.10;;;;;;;9.94;62.83;97775.81;8413076;28;20235;-73
2022/11/15 01:47:29;;;;;;;0.10;0.10;;;;;;;9.62;63.74;97770.31;8413737;28;20230;-73
2022/11/15 01:51:34;;;;;;;0.10;0.10;;;;;;;10.10;61.81;97768.19;8413361;28;20238;-73
2022/11/15 01:55:37;;;;;;;0.10;0.10;;;;;;;10.11;61.99;97759.50;8413115;28;20561;-73
2022/11/15 01:59:42;;;;;;;0.10;0.10;;;;;;;10.04;62.06;97758.97;8412701;28;20253;-73
2022/11/15 02:03:49;;;;;;;0.10;0.10;;;;;;;10.12;61.57;97749.09;8412889;28;20238;-72
2022/11/15 02:07:55;;;;;;;0.10;0.10;;;;;;;10.40;60.80;97754.81;8412501;28;20475;-73
2022/11/15 02:11:58;;;;;;;0.10;0.10;;;;;;;10.50;59.98;97746.50;8413044;28;20522;-73
2022/11/15 02:16:16;;;;;;;0.10;0.10;;;;;;;10.34;60.49;97746.41;8413291;28;20235;-73
2022/11/15 02:20:48;;;;;;;0.10;0.10;;;;;;;10.19;60.79;97754.84;8412164;28;20253;-73
2022/11/15 02:25:21;;;;;;;0.10;0.10;;;;;;;10.33;60.62;97736.13;8410678;28;20568;-73
2022/11/15 02:29:33;;;;;;;0.10;0.10;;;;;;;10.10;61.07;97719.03;8410755;28;20218;-73
2022/11/15 02:33:43;;;;;;;0.10;0.10;;;;;;;10.12;60.81;97715.47;8412119;28;20373;-73
2022/11/15 02:37:48;;;;;;;0.10;0.10;;;;;;;10.21;61.17;97708.19;8412769;28;20242;-73
2022/11/15 02:41:55;;;;;;;0.10;0.10;;;;;;;10.30;60.60;97711.22;8412301;28;20235;-73
2022/11/15 02:46:04;;;;;;;0.10;0.10;;;;;;;10.42;59.45;97699.44;8412400;28;20399;-73
2022/11/15 02:50:11;;;;;;;0.10;0.10;;;;;;;10.39;59.21;97696.16;8412863;28;20235;-73
2022/11/15 02:54:17;;;;;;;0.10;0.10;;;;;;;10.33;59.49;97689.53;8412767;28;20222;-73
2022/11/15 02:58:53;;;;;;;0.10;0.10;;;;;;;10.36;59.43;97690.22;8412988;28;20223;-73
2022/11/15 03:03:05;;;;;;;0.10;0.10;;;;;;;10.37;59.30;97680.69;8401527;28;20227;-74
2022/11/15 03:07:13;;;;;;;0.10;0.10;;;;;;;10.21;59.19;97688.31;8412450;28;20235;-73
2022/11/15 03:11:18;;;;;;;0.10;0.10;;;;;;;10.31;58.85;97678.41;8415408;28;20254;-73
2022/11/15 03:15:25;;;;;;;0.10;0.10;;;;;;;10.28;58.43;97674.19;8417726;28;20223;-73
2022/11/15 03:19:31;;;;;;;0.10;0.10;;;;;;;10.25;58.99;97666.56;8418730;28;20231;-73
2022/11/15 03:23:37;;;;;;;0.10;0.10;;;;;;;10.15;58.27;97670.50;8418712;28;20430;-73
2022/11/15 03:27:42;;;;;;;0.10;0.10;;;;;;;10.12;59.17;97668.06;8418578;28;20250;-73
2022/11/15 03:31:48;;;;;;;0.10;0.10;;;;;;;10.16;58.69;97661.81;8418380;28;20234;-73
2022/11/15 03:35:54;;;;;;;0.10;0.10;;;;;;;10.13;58.38;97659.41;8417679;28;20233;-74
2022/11/15 03:39:58;;;;;;;0.10;0.10;;;;;;;10.04;59.30;97660.66;8417992;28;20557;-72
2022/11/15 03:44:05;;;;;;;0.10;0.10;;;;;;;10.10;59.03;97655.19;8417674;28;20242;-73
2022/11/15 03:48:11;;;;;;;0.10;0.10;;;;;;;10.11;59.12;97661.19;8417990;28;20230;-73
2022/11/15 03:52:18;;;;;;;0.10;0.10;;;;;;;10.14;58.93;97661.88;8417661;28;20231;-72
2022/11/15 03:56:22;;;;;;;0.10;0.10;;;;;;;10.15;58.83;97648.06;8417579;28;20226;-73
2022/11/15 04:00:25;;;;;;;0.10;0.10;;;;;;;9.97;59.53;97651.50;8416865;28;20222;-73
2022/11/15 04:04:28;;;;;;;0.10;0.10;;;;;;;10.01;59.16;97657.38;8416904;28;20242;-73
2022/11/15 04:08:31;;;;;;;0.10;0.10;;;;;;;10.12;59.24;97650.78;8417341;28;20227;-73
2022/11/15 04:12:37;;;;;;;0.10;0.10;;;;;;;10.09;58.80;97665.59;8416629;28;20238;-73
2022/11/15 04:16:41;;;;;;;0.10;0.10;;;;;;;10.05;59.26;97653.72;8417226;28;20231;-73
2022/11/15 04:25:06;;;;;;;0.10;0.10;;;;;;;9.91;59.46;97642.28;8416848;28;20408;-73
2022/11/15 04:33:31;;;;;;;0.10;0.10;;;;;;;10.03;59.54;97640.03;8416032;28;20229;-73
2022/11/15 04:37:35;;;;;;;0.10;0.10;;;;;;;9.89;59.03;97638.09;8415882;28;20300;-73
2022/11/15 04:41:38;;;;;;;0.10;0.10;;;;;;;9.69;60.27;97632.09;8416473;28;20535;-74
2022/11/15 04:45:42;;;;;;;0.10;0.10;;;;;;;9.67;59.95;97623.59;8416031;28;20631;-74
2022/11/15 04:49:45;;;;;;;0.10;0.10;;;;;;;9.49;60.99;97627.00;8415627;28;20243;-73
2022/11/15 04:53:48;;;;;;;0.10;0.10;;;;;;;9.63;60.20;97616.03;8415549;28;20523;-73
2022/11/15 04:57:59;;;;;;;0.10;0.10;;;;;;;9.70;59.70;97609.66;8415511;28;20238;-73
2022/11/15 05:02:03;;;;;;;0.10;0.10;;;;;;;9.86;59.43;97610.63;8407447;28;20612;-74
2022/11/15 05:06:07;;;;;;;0.10;0.10;;;;;;;9.92;58.97;97612.09;8415351;28;20243;-73
2022/11/15 05:10:10;;;;;;;0.10;0.10;;;;;;;9.90;59.13;97612.16;8415264;28;20245;-73
2022/11/15 05:14:13;;;;;;;0.10;0.10;;;;;;;9.91;58.79;97606.06;8414947;28;20434;-73
2022/11/15 05:18:17;;;;;;;0.10;0.10;;;;;;;9.91;58.51;97608.66;8415053;28;20241;-73
2022/11/15 05:22:25;;;;;;;0.10;0.10;;;;;;;9.86;58.67;97613.22;8414194;28;20538;-73
2022/11/15 05:26:28;;;;;;;0.10;0.10;;;;;;;9.87;58.17;97607.13;8414890;28;20557;-73
2022/11/15 05:30:31;;;;;;;0.10;0.10;;;;;;;9.89;58.29;97600.13;8414574;28;20241;-74
2022/11/15 05:34:35;;;;;;;0.10;0.10;;;;;;;9.60;58.79;97596.34;8413450;28;20263;-73
2022/11/15 05:38:38;;;;;;;0.10;0.10;;;;;;;9.27;60.40;97596.09;8414506;28;20226;-74
2022/11/15 05:42:41;;;;;;;0.10;0.10;;;;;;;9.40;59.72;97592.06;8414192;28;20230;-73
2022/11/15 05:46:45;;;;;;;0.10;0.10;;;;;;;9.36;59.93;97583.59;8414420;28;20230;-73
2022/11/15 05:50:49;;;;;;;0.10;0.10;;;;;;;9.13;60.28;97576.91;8413945;28;20238;-73
2022/11/15 05:54:52;;;;;;;0.10;0.10;;;;;;;9.12;60.59;97582.97;8413988;28;20227;-73
2022/11/15 05:58:56;;;;;;;0.10;0.10;;;;;;;9.15;60.20;97575.06;8413738;28;20226;-73
2022/11/15 06:03:01;;;;;;;0.10;0.10;;;;;;;8.94;60.69;97582.03;8413449;28;20227;-74
2022/11/15 06:07:06;;;;;;;0.10;0.10;;;;;;;9.43;59.61;97586.75;8413863;28;20427;-73
2022/11/15 06:11:09;;;;;;;0.10;0.10;;;;;;;9.42;59.34;97587.66;8409864;28;20412;-72
2022/11/15 06:15:11;;;;;;;0.10;0.10;;;;;;;9.49;59.32;97594.22;8413640;28;20426;-72
2022/11/15 06:19:14;;;;;;;0.10;0.10;;;;;;;9.27;60.12;97602.13;8414067;28;20230;-75
2022/11/15 06:23:19;;;;;;;0.10;0.10;;;;;;;9.50;59.00;97610.56;8411775;28;20246;-73
2022/11/15 06:27:21;;;;;;;0.10;0.10;;;;;;;9.44;58.83;97603.94;8411696;28;20234;-73
2022/11/15 06:31:24;;;;;;;0.10;0.10;;;;;;;9.39;59.13;97603.31;8413202;28;20231;-73
2022/11/15 06:35:27;;;;;;;0.10;0.10;;;;;;;9.62;58.22;97596.28;8412889;28;20219;-73
2022/11/15 06:39:31;;;;;;;0.10;0.10;;;;;;;9.25;59.31;97591.00;8412870;28;20329;-73
2022/11/15 06:43:34;;;;;;;0.10;0.10;;;;;;;8.97;61.11;97594.00;8413588;28;20226;-74
2022/11/15 06:47:37;;;;;;;0.10;0.10;;;;;;;9.11;60.68;97604.53;8419474;28;20301;-73
2022/11/15 06:51:40;;;;;;;0.10;0.10;;;;;;;9.52;59.12;97607.03;8419508;28;20297;-73
2022/11/15 06:55:44;;;;;;;0.10;0.10;;;;;;;9.45;59.30;97610.78;8419652;28;20234;-73
2022/11/15 06:59:46;;;;;;;0.10;0.10;;;;;;;9.36;59.51;97599.09;8419726;28;20238;-72
2022/11/15 07:03:49;;;;;;;0.10;0.10;;;;;;;9.48;58.68;97595.16;8419257;28;20270;-72
2022/11/15 07:07:53;;;;;;;0.10;0.10;;;;;;;9.46;59.37;97591.81;8419332;28;20234;-77
2022/11/15 07:11:57;;;;;;;0.10;0.10;;;;;;;9.69;59.20;97600.22;8419049;28;20267;-74
2022/11/15 07:16:08;;;;;;;0.10;0.10;;;;;;;9.82;58.64;97603.06;8418883;28;20234;-73
2022/11/15 07:20:13;;;;;;;0.10;0.10;;;;;;;9.62;59.19;97602.25;8418828;28;20235;-73
2022/11/15 07:24:15;;;;;;;0.10;0.10;;;;;;;9.83;58.47;97584.91;8418729;28;20230;-72
2022/11/15 07:28:19;;;;;;;0.10;0.10;;;;;;;9.76;58.22;97586.94;8418865;28;20234;-72
2022/11/15 07:32:23;;;;;;;0.10;0.10;;;;;;;9.97;58.03;97582.47;8418664;28;20230;-72
2022/11/15 07:36:26;;;;;;;0.10;0.10;;;;;;;10.12;57.59;97574.91;8418454;28;20239;-72
2022/11/15 07:40:30;;;;;;;0.10;0.10;;;;;;;11.00;55.61;97579.13;8418424;28;20230;-72
2022/11/15 07:44:34;;;;;;;0.13;0.13;;;;;;;12.17;52.11;97585.78;8418264;28;20234;-73
2022/11/15 07:48:37;;;;;;;0.10;0.10;;;;;;;14.38;64.74;97586.22;8418383;28;20230;-72
2022/11/15 07:52:48;;;;;;;0.10;0.10;;;;;;;15.63;53.15;97581.19;8417942;28;20258;-72
2022/11/15 07:56:50;;;;;;;0.10;0.10;;;;;;;16.18;42.89;97589.47;8417298;28;20230;-72
2022/11/15 08:00:55;;;;;;;0.10;0.10;;;;;;;15.47;42.67;97584.06;8417489;28;20227;-72
2022/11/15 08:04:58;;;;;;;0.10;0.10;;;;;;;16.32;41.29;97578.84;8416709;28;20235;-72
2022/11/15 08:09:01;;;;;;;0.10;0.10;;;;;;;16.41;40.52;97572.94;8417484;28;20272;-72
2022/11/15 08:13:05;;;;;;;0.10;0.10;;;;;;;16.62;41.09;97577.53;8416908;28;20238;-72
2022/11/15 08:17:10;;;;;;;0.10;0.10;;;;;;;16.80;41.49;97578.72;8416919;28;20237;-72
2022/11/15 08:21:13;;;;;;;0.00;0.00;;;;;;;17.00;40.53;97576.41;8417029;28;20307;-72
2022/11/15 08:25:20;;;;;;;0.03;0.03;;;;;;;17.00;40.15;97574.63;8416937;28;20227;-72
2022/11/15 08:29:23;;;;;;;0.10;0.10;;;;;;;17.13;39.82;97571.06;8416938;28;20234;-72
2022/11/15 08:33:28;;;;;;;0.00;0.00;;;;;;;17.02;40.66;97571.06;8416527;28;20246;-72
2022/11/15 08:37:31;;;;;;;0.00;0.00;;;;;;;16.71;40.38;97562.91;8416481;28;20227;-72
2022/11/15 08:41:36;;;;;;;0.00;0.00;;;;;;;16.73;40.88;97556.59;8416103;28;20288;-72
2022/11/15 08:45:39;;;;;;;0.00;0.00;;;;;;;15.50;41.78;97557.75;8415515;28;20245;-73
2022/11/15 08:49:43;;;;;;;0.10;0.10;;;;;;;15.59;42.53;97559.72;8415216;28;20227;-72
2022/11/15 08:53:46;;;;;;;0.00;0.00;;;;;;;16.03;42.12;97552.25;8414992;28;20241;-72
2022/11/15 08:57:49;;;;;;;0.00;0.00;;;;;;;15.92;41.44;97547.81;8415525;28;20231;-72
2022/11/15 09:01:51;;;;;;;0.00;0.00;;;;;;;15.52;41.62;97545.44;8415746;28;20231;-72
2022/11/15 09:05:57;;;;;;;0.00;0.00;;;;;;;15.65;42.53;97532.34;8414390;28;20425;-72
2022/11/15 09:09:59;;;;;;;0.00;0.00;;;;;;;16.37;55.80;97534.94;8414789;28;20227;-72
2022/11/15 09:14:02;;;;;;;0.00;0.00;;;;;;;14.99;44.40;97532.59;8414948;28;20325;-72
2022/11/15 09:18:05;;;;;;;0.10;0.10;;;;;;;13.99;46.89;97523.63;8415053;28;20231;-72
2022/11/15 09:22:09;;;;;;;0.00;0.00;;;;;;;14.71;45.29;97527.59;8414573;28;20235;-71
2022/11/15 09:26:12;;;;;;;0.00;0.00;;;;;;;15.19;44.17;97526.00;8407239;28;20236;-72
2022/11/15 09:30:15;;;;;;;0.10;0.10;;;;;;;15.74;43.73;97517.81;8426886;28;20229;-72
2022/11/15 09:34:18;;;;;;;0.00;0.00;;;;;;;15.59;43.34;97509.28;8414005;28;20227;-72
2022/11/15 09:38:22;;;;;;;0.10;0.10;;;;;;;16.08;42.30;97515.34;8413785;28;20222;-72
2022/11/15 09:42:45;;;;;;;0.07;0.07;;;;;;;16.25;41.60;97516.72;8413756;28;20250;-72
2022/11/15 09:46:55;;;;;;;0.10;0.10;;;;;;;15.89;41.65;97516.69;8413636;28;20234;-72
2022/11/15 09:51:01;;;;;;;0.10;0.10;;;;;;;15.93;42.93;97515.50;8412942;28;20238;-72
2022/11/15 09:55:06;;;;;;;0.00;0.00;;;;;;;16.23;41.82;97515.03;8413509;28;20238;-72
2022/11/15 09:59:23;;;;;;;0.00;0.00;;;;;;;16.19;42.00;97505.75;8413383;28;20510;-71
2022/11/15 10:03:29;;;;;;;0.00;0.00;;;;;;;16.52;40.98;97498.13;8412842;28;20226;-72
2022/11/15 10:07:39;;;;;;;0.00;0.00;;;;;;;16.59;40.76;97489.69;8412710;28;20246;-72
2022/11/15 10:11:43;;;;;;;0.00;0.00;;;;;;;16.82;40.85;97476.66;8412290;28;20527;-72
2022/11/15 10:15:48;;;;;;;0.00;0.00;;;;;;;16.55;41.07;97474.38;8412743;28;20553;-72
2022/11/15 10:19:58;;;;;;;0.00;0.00;;;;;;;16.38;40.93;97470.41;8412525;28;20231;-71
2022/11/15 10:24:12;;;;;;;0.00;0.00;;;;;;;16.48;40.60;97463.53;8412798;28;20226;-73
2022/11/15 10:28:18;;;;;;;0.00;0.00;;;;;;;17.12;40.54;97449.06;8413086;28;20234;-72
2022/11/15 10:32:22;;;;;;;0.00;0.00;;;;;;;16.72;41.06;97439.09;8412972;28;20227;-73
2022/11/15 10:36:25;;;;;;;0.00;0.00;;;;;;;16.63;41.36;97443.22;8412713;28;20231;-72
2022/11/15 10:40:28;;;;;;;0.00;0.00;;;;;;;16.39;42.00;97438.94;8412748;28;20227;-73
2022/11/15 10:44:32;;;;;;;0.00;0.00;;;;;;;16.84;41.14;97434.72;8412756;28;20233;-72
2022/11/15 10:48:36;;;;;;;0.00;0.00;;;;;;;16.95;40.34;97432.09;8412138;28;20230;-72
2022/11/15 10:52:46;;;;;;;0.00;0.00;;;;;;;16.64;40.57;97429.22;8411981;28;20235;-73
2022/11/15 10:56:51;;;;;;;0.00;0.00;;;;;;;16.21;41.63;97432.50;8412170;28;20297;-72
2022/11/15 11:00:56;;;;;;;0.00;0.00;;;;;;;16.61;41.25;97417.22;8411690;28;20238;-73
2022/11/15 11:04:59;;;;;;;0.00;0.00;;;;;;;16.28;41.73;97410.19;8411916;28;20308;-73
2022/11/15 11:09:04;;;;;;;0.00;0.00;;;;;;;16.81;41.11;97410.44;8411898;28;20431;-73
2022/11/15 11:13:14;;;;;;;0.00;0.00;;;;;;;16.53;41.61;97406.53;8411571;28;20234;-72
2022/11/15 11:17:25;;;;;;;0.00;0.00;;;;;;;16.73;40.35;97399.72;8411977;28;20498;-73
2022/11/15 11:21:38;;;;;;;0.00;0.00;;;;;;;16.72;40.82;97394.63;8411930;28;20227;-72
2022/11/15 11:25:47;;;;;;;0.00;0.00;;;;;;;16.40;40.09;97395.34;8411968;28;20231;-72
2022/11/15 11:30:03;;;;;;;0.00;0.00;;;;;;;16.30;40.96;97381.34;8411776;28;20235;-72
2022/11/15 11:34:16;;;;;;;0.00;0.00;;;;;;;16.42;40.93;97375.16;8417036;28;20297;-72
2022/11/15 11:38:33;;;;;;;0.00;0.00;;;;;;;16.67;41.04;97365.41;8417411;28;20437;-72
2022/11/15 11:42:41;;;;;;;0.00;0.00;;;;;;;16.40;40.87;97370.03;8417419;28;20293;-72
2022/11/15 11:46:50;;;;;;;0.00;0.00;;;;;;;16.54;40.44;97368.13;8417053;28;20545;-72
2022/11/15 11:51:05;;;;;;;0.00;0.00;;;;;;;16.62;40.69;97360.56;8416542;28;20227;-73
2022/11/15 11:55:15;;;;;;;0.00;0.00;;;;;;;16.50;40.52;97359.69;8416835;28;20239;-72
2022/11/15 11:59:23;;;;;;;0.00;0.00;;;;;;;16.59;41.08;97361.59;8416573;28;20238;-72
2022/11/15 12:03:30;;;;;;;0.10;0.10;;;;;;;16.67;40.63;97350.53;8416351;28;20227;-72
2022/11/15 12:07:35;;;;;;;0.00;0.00;;;;;;;16.84;40.70;97353.66;8416477;28;20230;-72
2022/11/15 12:11:45;;;;;;;0.00;0.00;;;;;;;16.83;40.89;97346.75;8416299;28;20254;-72
2022/11/15 12:15:52;;;;;;;0.00;0.00;;;;;;;16.76;40.98;97338.53;8417039;28;20546;-72
2022/11/15 12:19:58;;;;;;;0.10;0.10;;;;;;;16.88;40.77;97336.75;8416193;28;20233;-73
2022/11/15 12:24:05;;;;;;;0.03;0.03;;;;;;;16.87;40.70;97332.47;8416220;28;20312;-73
2022/11/15 12:28:20;;;;;;;0.00;0.00;;;;;;;16.98;41.32;97338.53;8416210;28;20238;-73
2022/11/15 12:32:27;;;;;;;0.00;0.00;;;;;;;16.97;41.13;97325.56;8416110;28;20230;-73
2022/11/15 12:36:38;;;;;;;0.00;0.00;;;;;;;16.86;40.81;97315.13;8416395;28;20266;-73
2022/11/15 12:41:13;;;;;;;0.00;0.00;;;;;;;16.50;41.80;97301.38;8415934;28;20235;-74
2022/11/15 12:45:28;;;;;;;0.00;0.00;;;;;;;16.53;41.26;97307.19;8415018;28;20233;-73
2022/11/15 12:49:45;;;;;;;0.00;0.00;;;;;;;16.55;42.03;97302.69;8415273;28;20254;-73
2022/11/15 12:53:49;;;;;;;0.00;0.00;;;;;;;16.47;42.10;97307.69;8415419;28;20235;-73
2022/11/15 12:57:54;;;;;;;0.00;0.00;;;;;;;16.56;42.48;97308.72;8414111;28;20223;-74
2022/11/15 13:01:59;;;;;;;0.00;0.00;;;;;;;16.52;42.47;97302.09;8415015;28;20235;-72
2022/11/15 13:06:10;;;;;;;0.00;0.00;;;;;;;16.63;42.98;97309.91;8415089;28;20257;-73
2022/11/15 13:10:32;;;;;;;0.00;0.00;;;;;;;16.60;42.84;97300.53;8414650;28;20549;-72
2022/11/15 13:14:51;;;;;;;0.00;0.00;;;;;;;16.59;43.09;97293.63;8414500;28;20538;-73
2022/11/15 13:18:55;;;;;;;0.00;0.00;;;;;;;16.55;42.70;97291.41;8414101;28;20231;-73
2022/11/15 13:23:08;;;;;;;0.00;0.00;;;;;;;16.54;43.02;97280.09;8414139;28;20234;-72
2022/11/15 13:27:14;;;;;;;0.00;0.00;;;;;;;16.59;43.75;97270.13;8413974;28;20226;-73
2022/11/15 13:31:25;;;;;;;0.00;0.00;;;;;;;16.71;43.83;97273.53;8414170;28;20230;-71
2022/11/15 13:35:29;;;;;;;0.10;0.10;;;;;;;16.89;43.97;97266.03;8413752;28;20239;-71
2022/11/15 13:39:36;;;;;;;0.00;0.00;;;;;;;16.95;43.20;97255.06;8413716;28;20230;-72
2022/11/15 13:43:39;;;;;;;0.00;0.00;;;;;;;16.84;42.56;97243.81;8413600;28;20231;-72
2022/11/15 13:47:43;;;;;;;0.00;0.00;;;;;;;17.13;41.45;97241.41;8413529;28;20246;-75
2022/11/15 13:51:47;;;;;;;0.03;0.03;;;;;;;17.31;41.87;97241.69;8413640;28;20242;-72
2022/11/15 13:55:51;;;;;;;0.00;0.00;;;;;;;17.36;40.78;97242.97;8412654;28;20238;-72
2022/11/15 13:59:56;;;;;;;0.00;0.00;;;;;;;17.39;41.46;97234.84;8413026;28;20227;-72
2022/11/15 14:04:01;;;;;;;0.00;0.00;;;;;;;17.46;40.86;97229.09;8413034;28;20258;-72
2022/11/15 14:08:21;;;;;;;0.00;0.00;;;;;;;17.22;40.98;97235.44;8413042;28;20246;-72
2022/11/15 14:12:31;;;;;;;0.00;0.00;;;;;;;17.28;41.22;97231.47;8412972;28;20403;-72
2022/11/15 14:16:36;;;;;;;0.00;0.00;;;;;;;17.10;41.25;97233.84;8412974;28;20227;-72
2022/11/15 14:20:40;;;;;;;0.00;0.00;;;;;;;17.37;40.85;97228.09;8413085;28;20234;-73
2022/11/15 14:24:45;;;;;;;0.00;0.00;;;;;;;16.88;41.96;97216.47;8413293;28;20235;-72
2022/11/15 14:28:48;;;;;;;0.00;0.00;;;;;;;16.65;42.65;97213.09;8413194;28;20242;-72
2022/11/15 14:32:51;;;;;;;0.00;0.00;;;;;;;16.54;43.37;97206.91;8412901;28;20222;-72
2022/11/15 14:36:55;;;;;;;0.00;0.00;;;;;;;16.38;43.26;97204.72;8412638;28;20231;-72
2022/11/15 14:40:59;;;;;;;0.00;0.00;;;;;;;16.40;43.05;97207.22;8412846;28;20530;-72
2022/11/15 14:45:02;;;;;;;0.03;0.03;;;;;;;16.19;43.53;97199.31;8413092;28;20244;-72
2022/11/15 14:49:05;;;;;;;0.00;0.00;;;;;;;16.20;43.80;97187.88;8412659;28;20227;-72
2022/11/15 14:53:13;;;;;;;0.00;0.00;;;;;;;15.98;43.97;97183.56;8412715;28;20231;-72
2022/11/15 14:57:16;;;;;;;0.00;0.00;;;;;;;15.84;44.39;97182.03;8412775;28;20241;-72
2022/11/15 15:01:22;;;;;;;0.00;0.00;;;;;;;15.82;44.14;97176.94;8411959;28;20302;-72
2022/11/15 15:05:26;;;;;;;0.00;0.00;;;;;;;15.74;44.24;97170.63;8414202;28;20238;-72
2022/11/15 15:09:31;;;;;;;0.00;0.00;;;;;;;15.77;45.11;97167.78;8418869;28;20234;-72
2022/11/15 15:13:34;;;;;;;0.00;0.00;;;;;;;15.56;44.86;97158.03;8418275;28;20256;-72
2022/11/15 15:17:37;;;;;;;0.10;0.10;;;;;;;15.40;45.72;97154.94;8418369;28;20264;-72
2022/11/15 15:21:39;;;;;;;0.00;0.00;;;;;;;15.21;46.14;97147.69;8418215;28;20238;-72
2022/11/15 15:25:45;;;;;;;0.00;0.00;;;;;;;15.36;46.66;97143.06;8418251;28;20226;-71
2022/11/15 15:29:48;;;;;;;0.00;0.00;;;;;;;15.25;46.80;97136.91;8418337;28;20526;-72
2022/11/15 15:33:50;;;;;;;0.00;0.00;;;;;;;15.15;47.00;97145.56;8418110;28;20242;-72
2022/11/15 15:37:53;;;;;;;0.00;0.00;;;;;;;15.05;47.50;97154.06;8417038;28;20423;-72
2022/11/15 15:41:58;;;;;;;0.00;0.00;;;;;;;15.08;47.23;97154.78;8417646;28;20230;-73
2022/11/15 15:46:00;;;;;;;0.00;0.00;;;;;;;14.96;48.17;97157.34;8417416;28;20553;-71
2022/11/15 15:50:04;;;;;;;0.00;0.00;;;;;;;14.83;49.11;97151.41;8417513;28;20558;-71
2022/11/15 15:54:07;;;;;;;0.00;0.00;;;;;;;14.70;48.79;97145.44;8415421;28;20556;-74
2022/11/15 15:58:11;;;;;;;0.00;0.00;;;;;;;14.75;49.33;97143.31;8417206;28;20238;-71
2022/11/15 16:02:15;;;;;;;0.00;0.00;;;;;;;14.74;49.97;97142.50;8417894;28;20530;-71
2022/11/15 16:06:35;;;;;;;0.00;0.00;;;;;;;14.71;49.61;97140.13;8416455;28;20230;-71
2022/11/15 16:10:38;;;;;;;0.10;0.10;;;;;;;14.62;49.82;97136.44;8416094;27;20235;-72
2022/11/15 16:14:42;;;;;;;0.10;0.10;;;;;;;14.62;49.65;97131.22;8416659;28;20241;-72
2022/11/15 16:18:45;;;;;;;0.00;0.00;;;;;;;14.56;50.85;97147.25;8415419;28;20231;-72
2022/11/15 16:22:48;;;;;;;0.00;0.00;;;;;;;14.55;51.14;97139.56;8415836;28;20227;-72
2022/11/15 16:26:51;;;;;;;0.00;0.00;;;;;;;14.51;50.48;97128.56;8413697;28;20234;-72
2022/11/15 16:31:02;;;;;;;0.00;0.00;;;;;;;14.54;49.91;97124.88;8415786;28;20227;-72
2022/11/15 16:35:05;;;;;;;0.00;0.00;;;;;;;14.54;49.72;97122.28;8415927;28;20234;-71
2022/11/15 16:39:19;;;;;;;0.00;0.00;;;;;;;14.52;49.59;97122.38;8413021;28;20529;-72
2022/11/15 16:43:26;;;;;;;0.10;0.10;;;;;;;14.30;50.09;97115.31;8415811;28;20227;-72
2022/11/15 16:47:30;;;;;;;0.00;0.00;;;;;;;14.31;50.17;97114.38;8415849;28;20420;-72
2022/11/15 16:51:33;;;;;;;0.03;0.03;;;;;;;14.08;50.80;97114.25;8415560;28;20254;-72
2022/11/15 16:55:35;;;;;;;0.00;0.00;;;;;;;14.17;50.85;97111.94;8415471;28;20239;-71
2022/11/15 16:59:38;;;;;;;0.10;0.10;;;;;;;14.10;50.77;97102.91;8415452;28;20432;-72
2022/11/15 17:03:42;;;;;;;0.10;0.10;;;;;;;14.05;51.35;97092.81;8415186;28;20222;-72
2022/11/15 17:07:47;;;;;;;0.07;0.07;;;;;;;14.18;50.74;97090.16;8415988;28;20227;-72
2022/11/15 17:11:50;;;;;;;0.07;0.07;;;;;;;14.22;50.65;97089.84;8415720;28;20238;-72
2022/11/15 17:16:04;;;;;;;0.00;0.00;;;;;;;14.34;50.32;97089.88;8415079;28;20550;-72
2022/11/15 17:20:15;;;;;;;0.00;0.00;;;;;;;14.35;50.60;97084.53;8416124;28;20444;-72
2022/11/15 17:24:19;;;;;;;0.10;0.10;;;;;;;14.36;51.01;97082.78;8415877;28;20413;-72
2022/11/15 17:28:22;;;;;;;0.00;0.00;;;;;;;14.30;51.05;97075.41;8413937;28;20230;-71
2022/11/15 17:32:25;;;;;;;0.10;0.10;;;;;;;14.34;51.09;97066.44;8415348;28;20518;-70
2022/11/15 17:36:29;;;;;;;0.10;0.10;;;;;;;14.22;51.10;97071.63;8415148;28;20413;-71
2022/11/15 17:40:32;;;;;;;0.00;0.00;;;;;;;14.34;51.29;97062.06;8415080;28;20231;-71
2022/11/15 17:44:34;;;;;;;0.10;0.10;;;;;;;13.87;52.59;97059.38;8414116;28;20246;-72
2022/11/15 17:48:37;;;;;;;0.00;0.00;;;;;;;13.92;53.28;97047.78;8414860;28;20234;-73
2022/11/15 17:52:42;;;;;;;0.00;0.00;;;;;;;13.55;54.70;97042.63;8414735;28;20231;-72
2022/11/15 17:56:45;;;;;;;0.03;0.03;;;;;;;13.26;55.74;97033.31;8414529;28;20238;-71
2022/11/15 18:00:48;;;;;;;0.10;0.10;;;;;;;13.12;55.86;97038.66;8414169;28;20238;-71
2022/11/15 18:04:51;;;;;;;0.10;0.10;;;;;;;13.62;54.44;97042.09;8414225;28;20241;-72
2022/11/15 18:08:56;;;;;;;0.10;0.10;;;;;;;13.80;54.10;97044.31;8413389;28;20230;-72
2022/11/15 18:12:59;;;;;;;0.10;0.10;;;;;;;13.68;53.96;97030.41;8414045;28;20542;-72
2022/11/15 18:17:02;;;;;;;0.10;0.10;;;;;;;13.63;54.22;97030.75;8413934;28;20254;-72
2022/11/15 18:21:06;;;;;;;0.10;0.10;;;;;;;13.55;54.44;97030.47;8414248;28;20231;-72
2022/11/15 18:25:10;;;;;;;0.10;0.10;;;;;;;13.53;54.66;97024.53;8414208;28;20234;-73
2022/11/15 18:29:13;;;;;;;0.00;0.00;;;;;;;13.63;54.00;97025.56;8414044;28;20237;-74
2022/11/15 18:33:17;;;;;;;0.00;0.00;;;;;;;13.86;53.83;97020.47;8413887;28;20219;-72
2022/11/15 18:37:20;;;;;;;0.10;0.10;;;;;;;13.95;53.04;97018.94;8413869;28;20321;-73
2022/11/15 18:41:27;;;;;;;0.10;0.10;;;;;;;13.93;53.35;97019.06;8417700;28;20226;-75
2022/11/15 18:45:30;;;;;;;0.10;0.10;;;;;;;13.62;53.84;97021.28;8420491;28;20248;-73
2022/11/15 18:49:33;;;;;;;0.10;0.10;;;;;;;13.56;54.02;97015.69;8419946;28;20246;-72
2022/11/15 18:53:37;;;;;;;0.00;0.00;;;;;;;13.65;54.06;97010.66;8420436;28;20280;-72
2022/11/15 18:57:41;;;;;;;0.00;0.00;;;;;;;13.50;54.64;97009.16;8420284;28;20424;-73
2022/11/15 19:01:46;;;;;;;0.10;0.10;;;;;;;13.66;54.07;97012.31;8419819;28;20227;-72
2022/11/15 19:05:49;;;;;;;0.10;0.10;;;;;;;13.77;53.55;97008.13;8419871;28;20233;-72
2022/11/15 19:09:52;;;;;;;0.10;0.10;;;;;;;13.87;56.99;96994.31;8419787;28;20227;-71
2022/11/15 19:13:58;;;;;;;0.10;0.10;;;;;;;13.82;54.39;96992.97;8418834;28;20238;-72
2022/11/15 19:18:01;;;;;;;0.10;0.10;;;;;;;13.77;54.06;96995.94;8419383;28;20246;-72
2022/11/15 19:22:04;;;;;;;0.10;0.10;;;;;;;13.49;54.51;96994.47;8419177;28;20252;-71
2022/11/15 19:26:11;;;;;;;0.10;0.10;;;;;;;13.72;53.53;96979.81;8419227;28;20348;-71